createdAt,value
2023-03-17T00:01:47.934Z,50.51
2023-03-17T00:04:16.046Z,50.62
2023-03-17T00:06:46.485Z,50.74
2023-03-17T00:09:15.566Z,50.80
2023-03-17T00:11:44.456Z,50.72
2023-03-17T00:14:12.775Z,50.96
2023-03-17T00:16:43.769Z,50.88
2023-03-17T00:19:16.606Z,51.11
2023-03-17T00:21:47.082Z,51.16
2023-03-17T00:24:15.954Z,51.51
2023-03-17T00:26:44.235Z,51.66
2023-03-17T00:29:13.340Z,51.74
2023-03-17T00:31:41.593Z,51.92
2023-03-17T00:34:12.200Z,52.13
2023-03-17T00:36:40.590Z,52.40
2023-03-17T00:41:42.577Z,52.63
2023-03-17T00:44:11.751Z,52.76
2023-03-17T00:46:41.434Z,53.03
2023-03-17T00:51:44.794Z,53.25
2023-03-17T00:54:15.599Z,53.53
2023-03-17T00:56:45.192Z,53.67
2023-03-17T00:59:20.779Z,53.94
2023-03-17T01:01:49.257Z,54.07
2023-03-17T01:04:18.150Z,54.12
2023-03-17T01:06:46.405Z,54.45
2023-03-17T01:09:18.545Z,54.41
2023-03-17T01:11:47.068Z,54.51
2023-03-17T01:14:15.290Z,54.70
2023-03-17T01:16:44.740Z,54.80
2023-03-17T01:19:13.682Z,54.85
2023-03-17T01:21:42.497Z,54.86
2023-03-17T01:24:10.657Z,55.03
2023-03-17T01:26:40.431Z,55.11
2023-03-17T01:29:08.805Z,55.23
2023-03-17T01:31:37.379Z,55.28
2023-03-17T01:34:06.231Z,55.35
2023-03-17T01:36:34.468Z,55.67
2023-03-17T01:39:05.400Z,55.70
2023-03-17T01:41:35.098Z,55.90
2023-03-17T01:44:05.379Z,56.01
2023-03-17T01:46:34.906Z,56.05
2023-03-17T01:49:18.285Z,56.13
2023-03-17T01:51:53.207Z,56.37
2023-03-17T01:54:25.406Z,56.47
2023-03-17T01:56:56.267Z,56.73
2023-03-17T01:59:29.325Z,57.00
2023-03-17T02:02:01.667Z,57.11
2023-03-17T02:04:29.977Z,57.30
2023-03-17T02:06:58.946Z,57.44
2023-03-17T02:09:29.136Z,57.58
2023-03-17T02:11:57.924Z,57.75
2023-03-17T02:14:27.692Z,57.92
2023-03-17T02:16:56.213Z,58.23
2023-03-17T02:19:24.365Z,58.33
2023-03-17T02:21:55.151Z,58.47
2023-03-17T02:24:29.015Z,58.67
2023-03-17T02:26:59.433Z,58.80
2023-03-17T02:29:27.730Z,58.85
2023-03-17T02:31:55.819Z,59.07
2023-03-17T02:34:23.933Z,59.18
2023-03-17T02:36:53.469Z,59.38
2023-03-17T02:39:21.641Z,59.60
2023-03-17T02:41:49.717Z,59.65
2023-03-17T02:44:17.899Z,60.03
2023-03-17T02:46:46.296Z,59.92
2023-03-17T02:49:15.435Z,60.03
2023-03-17T02:51:45.144Z,60.22
2023-03-17T02:54:14.636Z,60.25
2023-03-17T02:56:42.797Z,60.04
2023-03-17T02:59:11.236Z,60.43
2023-03-17T03:01:39.893Z,60.54
2023-03-17T03:04:08.716Z,60.53
2023-03-17T03:06:37.497Z,60.64
2023-03-17T03:09:05.705Z,60.52
2023-03-17T03:11:35.997Z,60.63
2023-03-17T03:14:04.155Z,60.64
2023-03-17T03:16:32.356Z,60.68
2023-03-17T03:19:00.729Z,60.84
2023-03-17T03:21:28.848Z,60.75
2023-03-17T03:23:57.034Z,60.94
2023-03-17T03:26:25.235Z,60.83
2023-03-17T03:28:57.309Z,60.80
2023-03-17T03:31:26.163Z,60.82
2023-03-17T03:33:54.428Z,60.87
2023-03-17T03:36:23.338Z,60.80
2023-03-17T03:38:51.710Z,60.84
2023-03-17T03:41:19.819Z,60.83
2023-03-17T03:43:47.963Z,60.77
2023-03-17T03:46:17.470Z,60.64
2023-03-17T03:48:45.697Z,60.81
2023-03-17T03:51:13.796Z,60.77
2023-03-17T03:53:41.884Z,60.82
2023-03-17T03:56:09.953Z,60.74
2023-03-17T03:58:38.102Z,60.65
2023-03-17T04:01:06.431Z,60.60
2023-03-17T04:03:36.216Z,60.77
2023-03-17T04:06:04.724Z,60.68
2023-03-17T04:08:33.241Z,60.65
2023-03-17T04:11:01.520Z,60.83
2023-03-17T04:13:29.617Z,60.81
2023-03-17T04:15:57.715Z,60.85
2023-03-17T04:18:26.334Z,60.92
2023-03-17T04:20:56.048Z,61.02
2023-03-17T04:23:24.155Z,60.92
2023-03-17T04:25:53.005Z,60.94
2023-03-17T04:28:22.494Z,61.00
2023-03-17T04:30:50.633Z,61.03
2023-03-17T04:33:20.277Z,61.05
2023-03-17T04:35:48.421Z,60.98
2023-03-17T04:38:17.921Z,60.97
2023-03-17T04:40:46.231Z,61.07
2023-03-17T04:43:14.363Z,61.08
2023-03-17T04:45:42.444Z,61.17
2023-03-17T04:48:10.542Z,61.19
2023-03-17T04:50:39.117Z,61.40
2023-03-17T04:53:08.010Z,61.49
2023-03-17T04:55:37.548Z,61.57
2023-03-17T04:58:05.656Z,61.68
2023-03-17T05:00:38.634Z,61.80
2023-03-17T05:03:20.015Z,62.11
2023-03-17T05:05:54.049Z,62.31
2023-03-17T05:08:22.166Z,62.15
2023-03-17T05:10:51.813Z,62.23
2023-03-17T05:13:20.146Z,62.35
2023-03-17T05:15:48.332Z,62.29
2023-03-17T05:18:16.828Z,62.58
2023-03-17T05:20:45.075Z,62.66
2023-03-17T05:23:13.341Z,62.68
2023-03-17T05:25:41.717Z,62.81
2023-03-17T05:28:11.502Z,62.78
2023-03-17T05:30:39.706Z,62.96
2023-03-17T05:33:07.921Z,62.89
2023-03-17T05:35:36.099Z,63.04
2023-03-17T05:38:04.624Z,63.18
2023-03-17T05:40:32.996Z,63.14
2023-03-17T05:43:01.244Z,63.26
2023-03-17T05:45:30.843Z,63.28
2023-03-17T05:47:58.966Z,63.40
2023-03-17T05:50:28.003Z,63.50
2023-03-17T05:52:56.134Z,63.41
2023-03-17T05:55:24.282Z,63.59
2023-03-17T05:57:52.462Z,63.60
2023-03-17T06:00:21.870Z,63.68
2023-03-17T06:02:51.386Z,63.79
2023-03-17T06:05:19.549Z,63.68
2023-03-17T06:07:53.994Z,63.66
2023-03-17T06:10:24.428Z,63.48
2023-03-17T06:12:52.951Z,63.51
2023-03-17T06:15:21.462Z,63.53
2023-03-17T06:17:51.786Z,63.60
2023-03-17T06:20:20.219Z,63.54
2023-03-17T06:23:03.354Z,63.51
2023-03-17T06:25:33.561Z,63.39
2023-03-17T06:28:03.783Z,63.20
2023-03-17T06:30:32.974Z,63.27
2023-03-17T06:33:03.358Z,63.08
2023-03-17T06:35:32.141Z,62.96
2023-03-17T06:38:00.991Z,62.77
2023-03-17T06:40:29.302Z,62.71
2023-03-17T06:42:57.530Z,62.53
2023-03-17T06:45:26.068Z,62.44
2023-03-17T06:47:54.391Z,62.31
2023-03-17T06:50:23.876Z,62.26
2023-03-17T06:52:52.059Z,61.96
2023-03-17T06:55:21.336Z,61.94
2023-03-17T06:57:51.216Z,61.68
2023-03-17T07:00:21.000Z,61.57
2023-03-17T07:02:49.461Z,61.38
2023-03-17T07:05:17.948Z,61.33
2023-03-17T07:07:47.820Z,61.27
2023-03-17T07:10:17.382Z,60.98
2023-03-17T07:12:46.116Z,60.77
2023-03-17T07:15:14.302Z,60.71
2023-03-17T07:17:42.636Z,60.65
2023-03-17T07:20:11.971Z,60.56
2023-03-17T07:22:40.092Z,60.29
2023-03-17T07:25:10.915Z,59.95
2023-03-17T07:27:39.262Z,59.59
2023-03-17T07:30:08.767Z,59.08
2023-03-17T07:32:38.131Z,58.77
2023-03-17T07:35:07.400Z,58.30
2023-03-17T07:37:35.525Z,57.98
2023-03-17T07:40:03.815Z,57.69
2023-03-17T07:42:34.045Z,57.25
2023-03-17T07:45:02.232Z,56.77
2023-03-17T07:47:30.453Z,56.44
2023-03-17T07:49:58.589Z,56.24
2023-03-17T07:52:26.748Z,55.91
2023-03-17T07:54:55.940Z,55.69
2023-03-17T07:57:24.147Z,55.41
2023-03-17T07:59:53.751Z,55.10
2023-03-17T08:02:22.209Z,54.52
2023-03-17T08:04:51.013Z,54.08
2023-03-17T08:07:19.490Z,53.81
2023-03-17T08:09:47.875Z,53.64
2023-03-17T08:12:16.381Z,53.40
2023-03-17T08:14:44.475Z,52.87
2023-03-17T08:17:13.945Z,53.10
2023-03-17T08:19:42.468Z,53.01
2023-03-17T08:22:10.919Z,52.78
2023-03-17T08:24:39.734Z,52.45
2023-03-17T08:27:08.746Z,51.93
2023-03-17T08:29:37.040Z,51.28
2023-03-17T08:32:05.383Z,50.85
2023-03-17T08:34:34.908Z,50.57
2023-03-17T08:37:03.246Z,50.80
2023-03-17T08:39:31.754Z,50.32
2023-03-17T08:41:59.905Z,50.12
2023-03-17T08:44:28.165Z,49.97
2023-03-17T08:46:56.380Z,49.46
2023-03-17T08:49:24.654Z,48.87
2023-03-17T08:51:54.485Z,48.37
2023-03-17T08:54:23.034Z,48.14
2023-03-17T08:56:51.126Z,47.75
2023-03-17T08:59:19.646Z,47.35
2023-03-17T09:01:47.754Z,47.10
2023-03-17T09:04:16.908Z,46.65
2023-03-17T09:07:01.745Z,46.06
2023-03-17T09:09:32.290Z,46.47
2023-03-17T09:12:00.565Z,46.80
2023-03-17T09:14:30.573Z,47.46
2023-03-17T09:17:01.413Z,48.13
2023-03-17T09:19:29.493Z,48.54
2023-03-17T09:21:57.904Z,48.55
2023-03-17T09:24:26.110Z,49.02
2023-03-17T09:26:55.568Z,49.38
2023-03-17T09:29:23.683Z,49.67
2023-03-17T09:31:52.382Z,49.37
2023-03-17T09:34:20.751Z,49.47
2023-03-17T09:36:48.874Z,48.96
2023-03-17T09:39:17.148Z,48.92
2023-03-17T09:42:06.392Z,48.41
2023-03-17T09:45:12.269Z,47.98
2023-03-17T09:48:02.122Z,47.07
2023-03-17T09:50:42.062Z,47.51
2023-03-17T09:53:17.401Z,47.88
2023-03-17T09:55:48.318Z,47.61
2023-03-17T09:58:20.895Z,47.53
2023-03-17T10:00:49.124Z,47.72
2023-03-17T10:03:17.623Z,47.64
2023-03-17T10:05:46.941Z,47.83
2023-03-17T10:08:30.522Z,48.04
2023-03-17T10:11:03.006Z,48.38
2023-03-17T10:13:43.187Z,48.27
2023-03-17T10:16:14.528Z,48.33
2023-03-17T10:18:46.336Z,48.86
2023-03-17T10:21:16.936Z,48.54
2023-03-17T10:23:46.430Z,48.15
2023-03-17T10:26:26.049Z,48.26
2023-03-17T10:28:55.985Z,48.06
2023-03-17T10:31:30.054Z,48.07
2023-03-17T10:33:59.523Z,47.92
2023-03-17T10:36:36.477Z,47.08
2023-03-17T10:39:07.140Z,46.94
2023-03-17T10:41:37.236Z,46.77
2023-03-17T10:44:10.318Z,46.81
2023-03-17T10:46:40.203Z,46.93
2023-03-17T10:49:10.837Z,46.64
2023-03-17T10:51:40.508Z,46.19
2023-03-17T10:54:10.920Z,45.59
2023-03-17T10:56:42.265Z,45.36
2023-03-17T10:59:19.785Z,44.49
2023-03-17T11:01:51.119Z,43.47
2023-03-17T11:04:29.127Z,44.00
2023-03-17T11:06:58.399Z,42.98
2023-03-17T11:09:29.216Z,42.96
2023-03-17T11:12:05.970Z,42.83
2023-03-17T11:14:35.708Z,42.93
2023-03-17T11:17:05.340Z,42.61
2023-03-17T11:19:46.099Z,42.53
2023-03-17T11:22:16.731Z,42.43
2023-03-17T11:24:52.962Z,42.83
2023-03-17T11:27:27.921Z,42.93
2023-03-17T11:30:16.689Z,43.25
2023-03-17T11:32:51.981Z,43.69
2023-03-17T11:35:34.289Z,43.75
2023-03-17T11:38:20.192Z,44.08
2023-03-17T11:41:11.983Z,44.19
2023-03-17T11:43:50.619Z,44.51
2023-03-17T11:46:27.995Z,44.60
2023-03-17T11:49:02.833Z,44.65
2023-03-17T11:51:37.590Z,44.99
2023-03-17T11:54:10.780Z,44.75
2023-03-17T11:56:43.413Z,45.23
2023-03-17T11:59:21.673Z,45.10
2023-03-17T12:01:59.489Z,44.82
2023-03-17T12:04:34.321Z,44.52
2023-03-17T12:07:09.140Z,44.46
2023-03-17T12:09:40.974Z,44.96
2023-03-17T12:12:11.876Z,45.08
2023-03-17T12:14:43.009Z,44.42
2023-03-17T12:17:18.515Z,43.24
2023-03-17T12:19:57.194Z,42.31
2023-03-17T12:22:30.593Z,41.88
2023-03-17T12:25:06.621Z,41.39
2023-03-17T12:27:37.767Z,40.51
2023-03-17T12:30:13.471Z,40.15
2023-03-17T12:32:49.266Z,39.08
2023-03-17T12:35:26.241Z,38.41
2023-03-17T12:37:54.572Z,38.35
2023-03-17T12:40:26.457Z,38.28
2023-03-17T12:43:03.969Z,38.15
2023-03-17T12:45:44.596Z,37.84
2023-03-17T12:48:58.779Z,37.32
2023-03-17T12:51:44.891Z,37.79
2023-03-17T12:54:15.932Z,37.90
2023-03-17T12:56:46.364Z,37.91
2023-03-17T12:59:18.518Z,37.66
2023-03-17T13:01:54.349Z,37.29
2023-03-17T13:04:27.254Z,36.82
2023-03-17T13:07:00.731Z,36.59
2023-03-17T13:09:45.396Z,36.97
2023-03-17T13:12:57.046Z,37.27
2023-03-17T13:15:48.947Z,36.72
2023-03-17T13:18:48.846Z,35.58
2023-03-17T13:21:20.582Z,35.10
2023-03-17T13:23:54.967Z,35.21
2023-03-17T13:26:44.757Z,35.66
2023-03-17T13:29:25.475Z,35.29
2023-03-17T13:31:53.738Z,35.18
2023-03-17T13:34:22.343Z,34.96
2023-03-17T13:36:58.939Z,35.14
2023-03-17T13:40:13.143Z,34.80
2023-03-17T13:42:54.449Z,34.49
2023-03-17T13:45:35.086Z,34.14
2023-03-17T13:48:36.316Z,34.05
2023-03-17T13:51:15.644Z,34.10
2023-03-17T13:53:48.901Z,34.16
2023-03-17T13:56:19.696Z,34.14
2023-03-17T13:59:07.414Z,34.44
2023-03-17T14:01:40.724Z,34.37
2023-03-17T14:04:20.727Z,33.98
2023-03-17T14:06:51.568Z,33.81
2023-03-17T14:09:29.312Z,34.11
2023-03-17T14:12:00.322Z,34.16
2023-03-17T14:14:36.935Z,34.17
2023-03-17T14:17:12.087Z,34.27
2023-03-17T14:19:41.733Z,33.92
2023-03-17T14:22:22.417Z,34.14
2023-03-17T14:24:54.700Z,34.75
2023-03-17T14:27:24.281Z,34.72
2023-03-17T14:29:52.594Z,34.97
2023-03-17T14:32:22.096Z,35.32
2023-03-17T14:34:55.850Z,35.39
2023-03-17T14:37:24.212Z,35.78
2023-03-17T14:39:55.288Z,36.46
2023-03-17T14:42:28.296Z,36.83
2023-03-17T14:45:03.847Z,37.01
2023-03-17T14:47:37.846Z,37.40
2023-03-17T14:50:07.818Z,37.96
2023-03-17T14:52:37.182Z,37.95
2023-03-17T14:55:08.280Z,37.96
2023-03-17T14:57:38.719Z,37.95
2023-03-17T15:00:27.107Z,38.28
2023-03-17T15:02:56.257Z,37.94
2023-03-17T15:05:29.559Z,38.36
2023-03-17T15:07:58.145Z,37.88
2023-03-17T15:10:31.441Z,37.85
2023-03-17T15:13:02.133Z,38.34
2023-03-17T15:15:32.397Z,38.19
2023-03-17T15:18:04.040Z,38.17
2023-03-17T15:20:35.320Z,38.22
2023-03-17T15:23:06.391Z,38.12
2023-03-17T15:25:38.986Z,38.10
2023-03-17T15:28:12.503Z,37.81
2023-03-17T15:30:47.428Z,38.02
2023-03-17T15:33:22.144Z,38.33
2023-03-17T15:35:50.523Z,38.28
2023-03-17T15:38:18.844Z,37.92
2023-03-17T15:40:48.727Z,38.37
2023-03-17T15:43:17.590Z,38.49
2023-03-17T15:45:46.411Z,38.90
2023-03-17T15:48:18.168Z,38.96
2023-03-17T15:50:48.210Z,38.84
2023-03-17T15:53:16.577Z,39.25
2023-03-17T15:55:44.997Z,38.97
2023-03-17T15:58:14.464Z,39.76
2023-03-17T16:00:42.965Z,39.85
2023-03-17T16:03:16.678Z,39.90
2023-03-17T16:05:44.747Z,39.83
2023-03-17T16:08:14.637Z,40.45
2023-03-17T16:10:42.975Z,40.53
2023-03-17T16:13:11.113Z,40.47
2023-03-17T16:15:42.797Z,40.53
2023-03-17T16:18:14.903Z,40.93
2023-03-17T16:20:44.750Z,41.47
2023-03-17T16:23:16.442Z,41.31
2023-03-17T16:25:44.877Z,41.52
2023-03-17T16:28:17.000Z,41.64
2023-03-17T16:30:47.396Z,41.98
2023-03-17T16:33:18.281Z,41.85
2023-03-17T16:35:48.601Z,42.25
2023-03-17T16:38:18.844Z,42.81
2023-03-17T16:40:48.275Z,43.25
2023-03-17T16:43:25.541Z,43.17
2023-03-17T16:45:57.096Z,43.19
2023-03-17T16:48:25.860Z,43.54
2023-03-17T16:50:54.077Z,43.90
2023-03-17T16:53:22.649Z,44.39
2023-03-17T16:55:51.769Z,44.27
2023-03-17T16:58:21.784Z,44.71
2023-03-17T17:00:51.428Z,44.72
2023-03-17T17:03:21.061Z,45.36
2023-03-17T17:05:49.534Z,45.30
2023-03-17T17:08:17.763Z,45.83
2023-03-17T17:10:45.997Z,45.92
2023-03-17T17:13:14.624Z,45.62
2023-03-17T17:15:43.520Z,45.95
2023-03-17T17:18:15.870Z,46.83
2023-03-17T17:20:46.529Z,47.71
2023-03-17T17:23:15.967Z,48.78
2023-03-17T17:25:44.683Z,49.44
2023-03-17T17:28:14.425Z,49.24
2023-03-17T17:30:45.237Z,49.17
2023-03-17T17:33:13.459Z,50.52
2023-03-17T17:35:41.760Z,51.42
2023-03-17T17:38:17.847Z,51.95
2023-03-17T17:40:45.964Z,52.09
2023-03-17T17:43:14.100Z,52.86
2023-03-17T17:45:43.492Z,53.76
2023-03-17T17:48:11.798Z,53.86
2023-03-17T17:50:39.951Z,54.47
2023-03-17T17:53:11.683Z,54.33
2023-03-17T17:55:41.813Z,54.57
2023-03-17T17:58:10.409Z,54.85
2023-03-17T18:00:41.554Z,54.23
2023-03-17T18:03:09.839Z,54.57
2023-03-17T18:05:38.472Z,54.94
2023-03-17T18:08:07.023Z,54.55
2023-03-17T18:10:35.704Z,55.61
2023-03-17T18:13:05.333Z,56.46
2023-03-17T18:15:33.511Z,56.27
2023-03-17T18:18:01.611Z,57.05
2023-03-17T18:20:30.390Z,56.99
2023-03-17T18:22:58.829Z,57.48
2023-03-17T18:25:27.235Z,57.35
2023-03-17T18:27:55.649Z,57.99
2023-03-17T18:30:26.621Z,58.42
2023-03-17T18:32:57.866Z,58.17
2023-03-17T18:35:27.839Z,58.10
2023-03-17T18:37:57.291Z,58.34
2023-03-17T18:40:25.991Z,58.14
2023-03-17T18:42:54.363Z,58.73
2023-03-17T18:45:22.838Z,58.70
2023-03-17T18:47:52.442Z,58.96
2023-03-17T18:50:21.997Z,59.50
2023-03-17T18:52:50.666Z,59.30
2023-03-17T18:55:19.178Z,59.29
2023-03-17T18:57:48.099Z,59.81
2023-03-17T19:00:18.621Z,60.12
2023-03-17T19:02:47.257Z,60.22
2023-03-17T19:05:16.844Z,60.34
2023-03-17T19:07:44.940Z,60.58
2023-03-17T19:10:14.053Z,60.55
2023-03-17T19:12:42.620Z,60.05
2023-03-17T19:15:12.586Z,59.79
2023-03-17T19:17:40.999Z,59.84
2023-03-17T19:20:10.789Z,59.56
2023-03-17T19:22:40.374Z,59.86
2023-03-17T19:25:08.981Z,60.10
2023-03-17T19:27:37.343Z,60.93
2023-03-17T19:30:07.104Z,60.81
2023-03-17T19:32:35.281Z,60.96
2023-03-17T19:35:03.451Z,60.73
2023-03-17T19:37:32.223Z,60.74
2023-03-17T19:40:01.774Z,61.35
2023-03-17T19:42:29.959Z,61.69
2023-03-17T19:44:58.030Z,62.23
2023-03-17T19:47:26.314Z,62.66
2023-03-17T19:49:54.458Z,62.82
2023-03-17T19:52:22.661Z,63.07
2023-03-17T19:54:50.810Z,63.60
2023-03-17T19:57:20.892Z,63.55
2023-03-17T19:59:49.078Z,63.85
2023-03-17T20:02:17.764Z,63.83
2023-03-17T20:04:46.016Z,63.99
2023-03-17T20:07:14.290Z,64.00
2023-03-17T20:09:44.592Z,64.52
2023-03-17T20:12:12.682Z,64.94
2023-03-17T20:14:42.179Z,65.39
2023-03-17T20:17:10.265Z,65.24
2023-03-17T20:19:39.461Z,65.20
2023-03-17T20:22:08.690Z,65.59
2023-03-17T20:24:37.181Z,65.84
2023-03-17T20:27:06.866Z,66.07
2023-03-17T20:29:35.058Z,66.53
2023-03-17T20:32:04.838Z,66.44
2023-03-17T20:34:34.613Z,66.52
2023-03-17T20:37:03.976Z,66.68
2023-03-17T20:39:34.314Z,67.01
2023-03-17T20:42:04.319Z,67.18
2023-03-17T20:44:35.049Z,67.33
2023-03-17T20:47:04.739Z,67.53
2023-03-17T20:49:33.176Z,67.46
2023-03-17T20:52:01.600Z,67.71
2023-03-17T20:54:29.975Z,67.98
2023-03-17T20:57:01.074Z,67.86
2023-03-17T20:59:29.987Z,67.77
2023-03-17T21:01:58.892Z,67.85
2023-03-17T21:04:28.578Z,67.90
2023-03-17T21:06:57.460Z,68.01
2023-03-17T21:09:25.605Z,67.96
2023-03-17T21:11:53.687Z,67.77
2023-03-17T21:14:21.750Z,67.69
2023-03-17T21:16:50.390Z,67.77
2023-03-17T21:19:19.655Z,67.69
2023-03-17T21:21:49.164Z,67.41
2023-03-17T21:24:27.443Z,67.67
2023-03-17T21:26:55.856Z,66.97
2023-03-17T21:29:23.990Z,66.96
2023-03-17T21:31:52.659Z,66.91
2023-03-17T21:34:21.009Z,66.41
2023-03-17T21:36:50.749Z,65.62
2023-03-17T21:39:19.015Z,65.92
2023-03-17T21:41:48.731Z,65.87
2023-03-17T21:44:17.784Z,65.74
2023-03-17T21:46:46.441Z,65.60
2023-03-17T21:49:16.292Z,65.65
2023-03-17T21:51:45.299Z,65.51
2023-03-17T21:54:15.314Z,65.18
2023-03-17T21:56:43.645Z,65.08
2023-03-17T21:59:12.373Z,65.11
2023-03-17T22:01:41.740Z,64.81
2023-03-17T22:04:10.197Z,64.80
2023-03-17T22:06:38.273Z,64.73
2023-03-17T22:09:06.504Z,64.44
2023-03-17T22:11:36.050Z,64.13
2023-03-17T22:14:04.196Z,64.03
2023-03-17T22:16:32.505Z,64.37
2023-03-17T22:19:00.644Z,64.08
2023-03-17T22:21:28.879Z,64.14
2023-03-17T22:23:57.628Z,63.69
2023-03-17T22:26:25.703Z,63.68
2023-03-17T22:28:55.754Z,63.73
2023-03-17T22:31:25.713Z,63.59
2023-03-17T22:33:56.284Z,63.60
2023-03-17T22:36:25.676Z,64.25
2023-03-17T22:38:54.475Z,64.61
2023-03-17T22:41:24.435Z,64.70
2023-03-17T22:43:52.939Z,65.04
2023-03-17T22:46:22.991Z,65.49
2023-03-17T22:48:51.838Z,65.64
2023-03-17T22:51:21.865Z,65.77
2023-03-17T22:53:50.960Z,65.65
2023-03-17T22:56:19.978Z,65.86
2023-03-17T22:58:48.554Z,66.25
2023-03-17T23:01:18.026Z,66.25
2023-03-17T23:03:48.022Z,66.69
2023-03-17T23:06:16.126Z,66.14
2023-03-17T23:08:45.932Z,66.48
2023-03-17T23:11:16.101Z,66.46
2023-03-17T23:13:45.369Z,66.49
2023-03-17T23:16:13.628Z,66.25
2023-03-17T23:18:44.129Z,66.13
2023-03-17T23:21:21.180Z,65.96
2023-03-17T23:23:49.510Z,66.10
2023-03-17T23:26:18.002Z,65.98
2023-03-17T23:28:46.371Z,66.04
2023-03-17T23:31:15.843Z,65.88
2023-03-17T23:33:44.070Z,65.88
2023-03-17T23:36:14.044Z,65.93
2023-03-17T23:38:44.160Z,65.80
2023-03-17T23:41:12.761Z,65.63
2023-03-17T23:43:41.511Z,65.35
2023-03-17T23:46:09.589Z,65.42
2023-03-17T23:48:38.090Z,65.50
2023-03-17T23:51:07.032Z,65.29
2023-03-17T23:53:35.129Z,65.23
2023-03-17T23:56:04.907Z,65.39
2023-03-17T23:58:33.285Z,65.29
